Last 48 Hours

Stanford Met Tower

Hourly Data | America/Los_Angeles
as of 5/6/26 11:04 PM PDT
Date & Time Temp (°F) RH (%) Dew Pt (°F) Wind Dir (°) Wind Spd (mph) Wind Gust (mph) Solar Rad (W/m2) Pressure (mb) NowCast AQI Value (AQI) NowCast AQI Status Latest Rain (In) Daily Rain (In) Daily Min Temp (°F) Daily Max Temp (°F)
5/6/26 - 2300 55.3 89 53.3 ENE | 76 2.4 5.2 0 1,022.0 9 Good 0.00 0.00 49.7 72.8
5/6/26 - 2200 57.0 85 53.5 NE | 43 2.8 5.1 0 1,022.0 10 Good 0.00 0.00 49.7 72.8
5/6/26 - 2100 60.6 75 53.6 NNE | 21 3.0 5.9 1 1,021.2 10 Good 0.00 0.00 49.7 72.8
5/6/26 - 2000 66.2 64 54.6 W | 259 3.0 8.6 62 1,020.2 10 Good 0.00 0.00 49.7 72.8
5/6/26 - 1900 69.4 59 55.7 N | 349 4.6 10.2 233 1,019.5 9 Good 0.00 0.00 49.7 72.8
5/6/26 - 1800 70.6 58 56.0 NNW | 337 6.3 12.9 436 1,019.3 9 Good 0.00 0.00 49.7 72.8
5/6/26 - 1700 70.8 57 55.6 NNW | 348 8.2 14.4 624 1,019.2 8 Good 0.00 0.00 49.7 72.8
5/6/26 - 1600 71.3 55 55.3 N | 351 6.4 14.0 769 1,019.0 8 Good 0.00 0.00 49.7 72.8
5/6/26 - 1500 70.9 55 55.1 NNE | 27 4.6 10.7 876 1,019.3 9 Good 0.00 0.00 49.7 72.8
5/6/26 - 1400 68.7 59 55.0 N | 8 4.1 10.8 914 1,020.0 9 Good 0.00 0.00 49.7 70.6
5/6/26 - 1300 66.0 64 54.5 N | 350 5.0 10.6 917 1,020.9 8 Good 0.00 0.00 49.7 68.9
5/6/26 - 1200 63.9 66 53.3 NNW | 341 2.8 8.5 822 1,021.7 7 Good 0.00 0.00 49.7 66.5
5/6/26 - 1100 60.5 72 52.4 E | 87 1.5 5.1 520 1,022.4 6 Good 0.00 0.00 49.7 65.2
5/6/26 - 1000 58.0 77 51.9 WNW | 286 1.2 3.1 180 1,023.2 6 Good 0.00 0.00 49.7 59.7
5/6/26 - 0900 56.5 81 51.8 WNW | 298 1.3 4.6 95 1,023.3 5 Good 0.00 0.00 49.7 57.6
5/6/26 - 0800 54.7 90 52.7 WNW | 290 1.5 3.7 49 1,023.2 5 Good 0.00 0.00 49.7 57.4
5/6/26 - 0700 52.3 96 52.3 W | 268 1.9 4.0 10 1,023.1 4 Good 0.00 0.00 49.7 57.4
5/6/26 - 0600 50.6 97 50.7 W | 259 2.2 4.4 0 1,022.6 4 Good 0.00 0.00 49.7 57.4
5/6/26 - 0500 50.9 95 50.6 WSW | 253 1.8 4.0 0 1,022.3 3 Good 0.00 0.00 50.0 57.4
5/6/26 - 0400 53.2 90 51.2 NW | 323 0.7 2.4 0 1,021.8 3 Good 0.00 0.00 51.8 57.4
5/6/26 - 0300 55.8 84 52.2 WNW | 284 0.1 1.8 0 1,021.5 3 Good 0.00 0.00 55.0 57.4
5/6/26 - 0200 56.8 82 52.2 NNE | 28 0.8 2.7 0 1,021.4 3 Good 0.00 0.00 56.2 57.4
5/6/26 - 0100 56.8 79 51.2 ENE | 59 0.6 2.1 0 1,021.5 3 Good 0.00 0.01 51.0 63.5
5/6/26 - 0000 57.1 76 50.6 SW | 215 1.2 3.3 0 1,021.0 2 Good 0.00 0.01 51.0 63.5
5/5/26 - 2300 57.4 75 50.7 SSW | 213 1.9 4.4 0 1,020.7 2 Good 0.00 0.01 51.0 63.5
5/5/26 - 2200 57.8 75 51.1 SW | 230 2.8 8.8 0 1,020.2 3 Good 0.00 0.01 51.0 63.5
5/5/26 - 2100 58.2 75 51.5 SW | 225 3.4 7.4 0 1,019.5 4 Good 0.00 0.01 51.0 63.5
5/5/26 - 2000 59.4 72 51.1 SW | 223 5.2 12.1 29 1,018.8 4 Good 0.00 0.01 51.0 63.5
5/5/26 - 1900 60.0 70 51.2 WSW | 244 4.7 10.1 69 1,018.2 4 Good 0.00 0.01 51.0 63.5
5/5/26 - 1800 60.3 69 51.2 WSW | 241 5.7 12.5 103 1,018.2 4 Good 0.00 0.01 51.0 63.5
5/5/26 - 1700 61.2 67 51.2 W | 264 6.1 13.3 122 1,017.7 5 Good 0.00 0.01 51.0 63.5
5/5/26 - 1600 62.4 63 50.7 WNW | 288 4.2 9.8 268 1,017.6 5 Good 0.00 0.01 51.0 63.5
5/5/26 - 1500 61.4 65 50.4 NW | 313 5.8 11.3 309 1,017.9 5 Good 0.00 0.01 51.0 62.6
5/5/26 - 1400 61.2 64 50.1 NW | 306 5.8 14.2 294 1,018.1 5 Good 0.00 0.01 51.0 61.8
5/5/26 - 1300 60.0 69 50.8 W | 280 5.9 12.4 446 1,018.2 5 Good 0.00 0.01 51.0 61.8
5/5/26 - 1200 58.0 76 51.6 W | 271 5.5 12.5 253 1,018.6 5 Good 0.00 0.01 51.0 59.0
5/5/26 - 1100 56.6 79 51.2 WNW | 287 2.7 12.8 142 1,018.7 6 Good 0.00 0.01 51.0 57.7
5/5/26 - 1000 55.6 78 49.9 W | 267 0.6 3.0 108 1,018.4 6 Good 0.00 0.01 51.0 56.4
5/5/26 - 0900 54.4 86 51.1 ENE | 59 0.5 2.1 93 1,018.3 4 Good 0.00 0.01 51.0 55.8
5/5/26 - 0800 52.4 93 51.4 S | 184 1.7 4.7 54 1,017.9 4 Good 0.00 0.01 51.0 54.1
5/5/26 - 0700 51.3 95 50.8 SSW | 202 1.7 5.3 5 1,017.8 4 Good 0.00 0.01 51.0 54.1
5/5/26 - 0600 51.3 94 50.8 SSE | 168 2.3 4.7 0 1,017.4 3 Good 0.00 0.01 51.1 54.1
5/5/26 - 0500 51.4 92 50.0 SSW | 207 0.6 2.4 0 1,017.5 3 Good 0.01 0.01 51.1 54.1
5/5/26 - 0400 52.2 85 48.9 SSW | 211 2.1 4.4 0 1,017.7 4 Good 0.00 0.00 51.5 54.1
5/5/26 - 0300 52.7 78 47.2 WSW | 257 2.6 5.9 0 1,017.8 4 Good 0.00 0.00 52.4 54.1
5/5/26 - 0200 53.4 74 46.2 WSW | 257 3.4 7.9 0 1,018.1 4 Good 0.00 0.00 53.0 54.1
5/5/26 - 0100 54.0 73 46.5 WNW | 295 4.4 10.5 0 1,018.4 4 Good 0.00 0.00 46.2 65.5
5/5/26 - 0000 54.1 76 47.6 NW | 312 3.5 7.6 0 1,018.2 4 Good 0.00 0.00 46.2 65.5
5/4/26 - 2300 54.7 78 48.9 NW | 306 5.2 14.6 0 1,017.9 4 Good 0.00 0.00 46.2 65.5
Max 71.3 97 56.0 - 8.2 14.6 917 1,023.3 10 - 0.01 0.01 56.2 72.8
Avg 58.5 76 51.6 - 3.2 7.6 180 1,019.8 5 - 0.00 - - -
Min 50.6 55 46.2 - 0.1 1.8 0 1,017.4 2 - 0.00 0.00 46.2 54.1
Total - - - - - - - - - - 0.01 - - -